首页
METAR-TAF:

METAR-TAF

机场 :

溫哥華國際機場

溫哥華, 不列颠哥伦比亚, 加拿大

纬度: 49-11N, 经度: 123-10W, 海拔: 3米

当前天气观测

该预报发布于46分钟前的02:00 UTC
风速9节,风向
温度 19°C
湿度 52%
气压 1015 hPa
能見度: 32.2公里
少量云层高于23000英尺

METAR: CYVR 140200Z 19009KT 20SM FEW230 19/09 A2997 RMK CI1 SLP152 DENSITY ALT 500FT

时间: 19:46 (02:46 UTC)

预报

该预报发布于3小时和6分钟前的23:40 UTC
预报有效从14日的 00点(UTC)到 15日的 06点(UTC)
风速8节,风向西南
能見度: 10公里
少量云层高于5000英尺
多云层高于23000英尺
成为
从 14日的 02点(UTC)到 14日的 04点(UTC)
风速8节,风向
从 14日的 1000点(UTC)
风速10节,风向
能見度: 10公里
多云层高于5000英尺
从 14日的 1400点(UTC)
风速10节,风向
能見度: 10公里
阴天层高于4000英尺
短暂存在
从 14日的 14点(UTC)到 14日的 17点(UTC)
能見度: 8.0公里
阴天层高于2000英尺
小阵雨, 轻雾
从 14日的 1700点(UTC)
风速10节,风向南转南东
能見度: 10公里
阴天层高于2500英尺
小雨
短暂存在
从 14日的 17点(UTC)到 14日的 21点(UTC)
能見度: 4.8公里
散云层高于800英尺
阴天层高于1500英尺
小阵雨, 轻雾
从 14日的 2100点(UTC)
风速10节,风向南转南东
能見度: 10公里
多云层高于5000英尺
从 15日的 0400点(UTC)
风速10节,风向东南
能見度: 10公里
散云层高于2000英尺

TAF: CYVR 132340Z 1400/1506 23008KT P6SM FEW050 BKN230 BECMG 1402/1404 10008KT FM141000 08010KT P6SM BKN050 FM141400 08010KT P6SM OVC040 TEMPO 1414/1417 5SM -SHRA BR OVC020 FM141700 15010KT P6SM -RA OVC025 TEMPO 1417/1421 3SM -SHRA BR SCT008 OVC015 FM142100 15010KT P6SM BKN050 FM150400 14010KT P6SM SCT020 RMK NXT FCST BY 140300Z

超过4000个机场的气象观测和天气预报(METAR&TAF报告)。

可查询的气象台以黄色和红色小点在地图上表示。

将鼠标移到小点上方,可查看气象台名称。

然后点击查看天气观测和预报。

如需切换地图:点击带黑十字的绿色按钮放大地图;点击带横线的绿色按钮缩小地图;或者点击绿色箭头查看邻近地区的地图。


METAR-TAF: